Time;durP1;ratioP1;P1;durP2;ratioP2;P2;SDS_P1;SDS_P2;PMS_P1;PMS_P2;Temp;Humidity;BMP_temperature;BMP_pressure;BME280_temperature;BME280_humidity;BME280_pressure;Samples;Min_cycle;Max_cycle;Signal;HPM_P1;HPM_P2
2022/04/09 00:02:04;;;;;;;;;6.25;6.25;;;;;5.43;77.84;100459.44;4973744;28;45485;-57
2022/04/09 00:04:29;;;;;;;;;8.00;5.00;;;;;5.41;78.79;100463.06;4974130;28;46093;-56
2022/04/09 00:06:55;;;;;;;;;5.25;4.00;;;;;5.38;79.60;100461.38;4974280;28;45412;-58
2022/04/09 00:09:20;;;;;;;;;7.25;6.25;;;;;5.45;79.00;100467.28;4971707;28;45492;-57
2022/04/09 00:11:46;;;;;;;;;7.75;5.75;;;;;5.47;78.67;100473.34;4974468;28;45417;-56
2022/04/09 00:14:12;;;;;;;;;7.50;6.75;;;;;5.37;78.82;100448.25;4983839;28;45472;-56
2022/04/09 00:16:38;;;;;;;;;7.00;5.00;;;;;5.51;78.62;100477.63;4973775;28;45315;-57
2022/04/09 00:19:04;;;;;;;;;5.75;5.75;;;;;5.51;78.49;100486.41;4971806;28;45580;-56
2022/04/09 00:21:31;;;;;;;;;8.25;7.00;;;;;5.51;78.17;100477.63;4972496;28;45538;-58
2022/04/09 00:23:57;;;;;;;;;8.50;7.00;;;;;5.50;77.99;100470.63;4978960;28;46528;-57
2022/04/09 00:26:22;;;;;;;;;10.00;7.00;;;;;5.53;78.48;100466.09;4981987;28;45635;-56
2022/04/09 00:28:48;;;;;;;;;7.25;5.25;;;;;5.55;78.78;100474.81;4985083;27;45389;-57
2022/04/09 00:31:13;;;;;;;;;5.00;5.00;;;;;5.53;79.12;100471.38;4973949;28;45327;-56
2022/04/09 00:33:38;;;;;;;;;4.00;4.00;;;;;5.57;77.88;100480.88;4972151;28;46035;-56
2022/04/09 00:36:04;;;;;;;;;5.00;5.00;;;;;5.58;78.11;100487.88;4963063;28;45361;-57
2022/04/09 00:38:30;;;;;;;;;3.50;3.50;;;;;5.61;78.45;100494.84;4974144;28;45443;-57
2022/04/09 00:40:56;;;;;;;;;6.50;5.00;;;;;5.63;78.22;100488.59;4972741;28;45354;-57
2022/04/09 00:43:22;;;;;;;;;4.50;4.50;;;;;5.70;77.69;100498.88;4975228;28;47099;-59
2022/04/09 00:45:49;;;;;;;;;6.50;5.75;;;;;5.73;78.36;100498.78;4973756;28;45598;-56
2022/04/09 00:48:14;;;;;;;;;4.00;4.00;;;;;5.74;77.34;100501.38;4973228;28;45463;-57
2022/04/09 00:50:40;;;;;;;;;5.75;5.75;;;;;5.71;77.95;100490.91;4973369;27;46620;-56
2022/04/09 00:53:09;;;;;;;;;7.50;7.25;;;;;5.82;78.50;100508.97;4982401;28;47650;-56
2022/04/09 00:58:21;;;;;;;;;5.75;5.75;;;;;5.94;78.35;100510.34;4972947;28;45366;-56
2022/04/09 01:00:46;;;;;;;;;7.00;5.00;;;;;5.93;76.85;100512.13;4973377;28;45514;-56
2022/04/09 01:03:16;;;;;;;;;7.25;5.00;;;;;5.98;77.32;100512.78;4976678;28;46023;-56
2022/04/09 01:05:43;;;;;;;;;6.25;5.00;;;;;6.03;77.59;100520.56;4975978;28;45827;-57
2022/04/09 01:08:09;;;;;;;;;7.50;6.00;;;;;6.06;77.31;100520.44;4972106;28;45472;-57
2022/04/09 01:10:35;;;;;;;;;7.75;5.00;;;;;5.96;77.00;100504.06;4974377;28;45508;-58
2022/04/09 01:13:01;;;;;;;;;6.25;5.00;;;;;6.07;77.26;100520.38;4996825;28;45522;-57
2022/04/09 01:15:27;;;;;;;;;5.75;4.50;;;;;6.07;76.86;100520.38;4976384;28;45440;-58
2022/04/09 01:17:53;;;;;;;;;6.25;4.00;;;;;6.09;76.59;100528.22;4991608;27;45579;-56
2022/04/09 01:20:26;;;;;;;;;6.25;6.25;;;;;5.94;76.58;100499.78;4976415;28;45349;-56
2022/04/09 01:22:52;;;;;;;;;7.50;7.50;;;;;6.08;76.93;100531.78;4963304;28;45461;-57
2022/04/09 01:25:17;;;;;;;;;7.75;6.25;;;;;6.02;76.92;100532.91;5000036;28;45438;-57
2022/04/09 01:27:43;;;;;;;;;5.75;5.75;;;;;6.04;76.81;100538.09;4986207;28;45256;-56
2022/04/09 01:30:09;;;;;;;;;7.25;4.00;;;;;6.02;76.18;100524.13;4975657;28;45530;-58
2022/04/09 01:32:35;;;;;;;;;7.25;3.50;;;;;6.01;76.90;100535.59;4976250;28;45504;-57
2022/04/09 01:35:01;;;;;;;;;5.25;5.25;;;;;5.97;76.31;100532.19;5033838;28;45410;-57
2022/04/09 01:37:27;;;;;;;;;6.50;5.00;;;;;6.01;76.47;100551.44;4977314;28;45403;-56
2022/04/09 01:39:53;;;;;;;;;5.50;4.75;;;;;5.95;77.07;100556.94;4983050;27;45615;-57
2022/04/09 01:42:21;;;;;;;;;3.50;3.50;;;;;6.00;75.80;100573.47;4974285;28;45309;-56
2022/04/09 01:44:46;;;;;;;;;5.00;3.50;;;;;5.91;76.28;100572.88;4976141;28;45523;-56
2022/04/09 01:47:12;;;;;;;;;3.00;3.00;;;;;5.95;76.21;100585.97;4975542;28;45417;-57
2022/04/09 01:49:37;;;;;;;;;4.50;2.00;;;;;5.96;75.92;100585.03;4975309;28;45651;-57
2022/04/09 01:52:03;;;;;;;;;5.00;4.00;;;;;5.88;75.68;100570.34;4976211;28;45491;-56
2022/04/09 01:54:28;;;;;;;;;4.75;2.00;;;;;5.85;75.61;100572.19;4975314;28;45572;-56
2022/04/09 01:56:54;;;;;;;;;4.00;2.50;;;;;5.86;76.26;100576.59;5006984;28;45425;-57
2022/04/09 01:59:19;;;;;;;;;4.00;4.00;;;;;5.85;76.40;100580.13;5013488;27;45358;-56
2022/04/09 02:01:47;;;;;;;;;8.75;4.00;;;;;5.85;75.08;100588.91;4995048;27;45456;-58
2022/04/09 02:04:13;;;;;;;;;1.00;1.00;;;;;5.79;74.86;100581.22;5021536;27;45545;-57
2022/04/09 02:06:38;;;;;;;;;4.00;4.00;;;;;5.77;77.58;100580.41;4976115;28;45467;-57
2022/04/09 02:09:04;;;;;;;;;4.75;4.00;;;;;5.70;77.94;100584.19;4975758;28;45466;-57
2022/04/09 02:11:29;;;;;;;;;4.00;4.00;;;;;5.69;77.82;100590.38;4975027;27;46012;-57
2022/04/09 02:13:55;;;;;;;;;7.50;4.00;;;;;5.60;77.54;100582.81;5005814;28;45449;-56
2022/04/09 02:16:20;;;;;;;;;4.00;4.00;;;;;5.61;78.33;100580.13;4974062;28;46212;-58
2022/04/09 02:18:45;;;;;;;;;7.00;4.25;;;;;5.65;77.06;100580.88;4970248;27;45916;-57
2022/04/09 02:21:11;;;;;;;;;4.00;4.00;;;;;5.71;77.81;100591.19;4975384;28;45974;-56
2022/04/09 02:23:36;;;;;;;;;4.00;4.00;;;;;5.73;78.00;100592.00;4975629;28;45459;-56
2022/04/09 02:26:02;;;;;;;;;4.50;4.50;;;;;5.73;77.52;100589.38;4975865;28;45398;-56
2022/04/09 02:28:28;;;;;;;;;3.00;3.00;;;;;5.64;76.62;100573.88;4973964;28;45656;-56
2022/04/09 02:30:53;;;;;;;;;4.00;4.00;;;;;5.68;76.79;100578.09;5018930;28;46009;-56
2022/04/09 02:33:19;;;;;;;;;5.75;5.75;;;;;5.74;77.36;100595.50;4990609;27;45313;-57
2022/04/09 02:35:44;;;;;;;;;5.00;5.00;;;;;5.65;75.49;100580.88;4964886;27;45518;-57
2022/04/09 02:38:10;;;;;;;;;4.75;4.75;;;;;5.69;76.12;100586.88;4975362;28;45502;-56
2022/04/09 02:40:37;;;;;;;;;6.50;5.00;;;;;5.70;77.29;100594.75;4973909;28;45529;-56
2022/04/09 02:43:03;;;;;;;;;5.00;2.50;;;;;5.70;77.35;100605.28;4973794;28;45496;-56
2022/04/09 02:45:28;;;;;;;;;4.00;4.00;;;;;5.67;77.40;100597.50;4972994;28;45467;-56
2022/04/09 02:47:54;;;;;;;;;4.00;4.00;;;;;5.77;77.39;100613.88;4975279;28;45570;-58
2022/04/09 02:50:19;;;;;;;;;8.00;6.75;;;;;5.71;77.86;100601.72;4974905;28;45423;-57
2022/04/09 02:52:45;;;;;;;;;5.75;5.00;;;;;5.73;77.10;100604.31;4972615;28;45486;-58
2022/04/09 02:55:11;;;;;;;;;7.75;7.75;;;;;5.84;77.15;100618.84;4974796;28;45244;-56
2022/04/09 02:57:37;;;;;;;;;9.25;5.00;;;;;5.87;77.47;100613.50;4985004;28;45956;-56
2022/04/09 03:00:05;;;;;;;;;8.50;6.25;;;;;5.91;76.74;100607.19;4974976;27;45620;-58
2022/04/09 03:02:31;;;;;;;;;4.50;4.50;;;;;5.96;77.19;100617.56;4963654;28;45374;-56
2022/04/09 03:04:56;;;;;;;;;7.00;6.25;;;;;5.96;77.30;100617.56;5006266;28;45544;-56
2022/04/09 03:07:23;;;;;;;;;5.00;5.00;;;;;5.91;77.52;100619.53;4974887;28;45527;-61
2022/04/09 03:09:48;;;;;;;;;7.50;7.50;;;;;5.91;77.64;100628.31;5007571;28;45527;-55
2022/04/09 03:12:14;;;;;;;;;5.75;5.75;;;;;5.88;78.67;100638.97;4979037;28;45323;-57
2022/04/09 03:14:39;;;;;;;;;7.75;6.50;;;;;5.86;79.07;100638.16;4975071;28;45432;-57
2022/04/09 03:17:04;;;;;;;;;7.00;6.25;;;;;5.84;78.80;100639.97;4974894;28;45337;-57
2022/04/09 03:19:30;;;;;;;;;9.25;6.00;;;;;5.85;80.04;100644.31;4974377;28;45905;-56
2022/04/09 03:21:55;;;;;;;;;11.50;9.00;;;;;5.83;79.67;100654.09;4977466;28;45400;-57
2022/04/09 03:24:21;;;;;;;;;7.50;5.00;;;;;5.77;82.06;100654.31;4973511;28;45276;-58
2022/04/09 03:26:46;;;;;;;;;5.00;5.00;;;;;5.67;86.00;100652.91;5046518;28;45412;-56
2022/04/09 03:29:11;;;;;;;;;2.00;2.00;;;;;5.59;83.18;100655.78;4974554;28;45491;-55
2022/04/09 03:31:37;;;;;;;;;2.50;2.50;;;;;5.51;81.51;100649.09;4970467;28;45354;-57
2022/04/09 03:34:04;;;;;;;;;5.50;2.50;;;;;5.55;81.41;100658.59;4970174;28;45322;-57
2022/04/09 03:36:30;;;;;;;;;7.00;4.00;;;;;5.51;79.54;100667.53;4979420;28;45778;-57
2022/04/09 03:38:56;;;;;;;;;1.00;1.00;;;;;5.46;79.31;100672.09;4973102;28;48362;-56
2022/04/09 03:41:21;;;;;;;;;4.50;4.50;;;;;5.46;79.52;100674.72;4974032;28;45636;-56
2022/04/09 03:43:49;;;;;;;;;3.00;3.00;;;;;5.48;79.37;100678.22;4995460;27;45322;-58
2022/04/09 03:46:15;;;;;;;;;3.00;3.00;;;;;5.50;79.32;100682.50;4983724;27;45342;-56
2022/04/09 03:48:42;;;;;;;;;2.00;2.00;;;;;5.45;79.28;100687.06;4974273;28;45410;-56
2022/04/09 03:51:07;;;;;;;;;4.00;4.00;;;;;5.44;79.41;100687.13;4974022;28;45595;-56
2022/04/09 03:53:34;;;;;;;;;1.00;1.00;;;;;5.49;79.41;100685.19;4972600;28;45442;-57
2022/04/09 03:56:00;;;;;;;;;3.75;2.00;;;;;5.51;78.65;100693.94;4973165;28;45220;-56
2022/04/09 03:58:26;;;;;;;;;4.50;3.50;;;;;5.48;78.17;100688.75;4971684;28;45541;-56
2022/04/09 04:00:53;;;;;;;;;2.50;2.50;;;;;5.45;78.96;100684.41;4972039;28;45514;-57
2022/04/09 04:03:19;;;;;;;;;2.00;2.00;;;;;5.51;79.31;100694.78;4998106;28;45407;-56
2022/04/09 04:05:45;;;;;;;;;3.50;3.50;;;;;5.48;78.32;100694.91;5000250;27;45492;-57
2022/04/09 04:08:11;;;;;;;;;4.25;4.25;;;;;5.47;79.16;100700.19;4974484;28;47769;-58
2022/04/09 04:10:37;;;;;;;;;4.75;4.75;;;;;5.46;79.12;100696.69;4974201;28;45503;-58
2022/04/09 04:13:06;;;;;;;;;8.25;5.00;;;;;5.43;79.09;100693.31;4974788;27;45393;-56
2022/04/09 04:15:32;;;;;;;;;5.50;5.50;;;;;5.46;77.96;100695.84;4973923;28;45472;-58
2022/04/09 04:17:58;;;;;;;;;4.00;4.00;;;;;5.25;79.28;100671.06;4989235;28;45460;-58
2022/04/09 04:20:24;;;;;;;;;5.00;5.00;;;;;5.44;78.99;100692.38;4974396;28;45444;-58
2022/04/09 04:22:53;;;;;;;;;5.00;5.00;;;;;5.43;78.34;100685.41;4974325;28;45419;-57
2022/04/09 04:25:20;;;;;;;;;7.25;4.25;;;;;5.43;76.86;100688.88;4981425;28;45329;-58
2022/04/09 04:27:49;;;;;;;;;8.00;6.00;;;;;5.37;76.71;100691.75;4973932;28;45236;-56
2022/04/09 04:30:16;;;;;;;;;5.50;5.50;;;;;5.41;77.74;100697.78;4973296;28;45656;-56
2022/04/09 04:32:42;;;;;;;;;6.75;6.75;;;;;5.46;78.67;100685.28;4973442;27;45394;-58
2022/04/09 04:35:08;;;;;;;;;6.25;6.25;;;;;5.43;77.86;100690.66;4972240;28;45275;-57
2022/04/09 04:37:40;;;;;;;;;9.50;6.75;;;;;5.45;78.03;100696.75;4973618;28;45266;-57
2022/04/09 04:40:07;;;;;;;;;14.00;7.50;;;;;5.48;78.64;100694.03;4980711;28;45346;-57
2022/04/09 04:42:32;;;;;;;;;11.00;7.00;;;;;5.40;77.61;100691.63;4972331;27;45455;-57
2022/04/09 04:44:57;;;;;;;;;7.75;7.75;;;;;5.51;77.50;100699.19;4971571;28;45495;-57
2022/04/09 04:47:23;;;;;;;;;4.75;4.75;;;;;5.49;76.41;100686.06;4973615;28;46051;-56
2022/04/09 04:49:48;;;;;;;;;9.00;7.00;;;;;5.52;77.36;100690.38;4973301;27;45450;-57
2022/04/09 04:52:14;;;;;;;;;12.00;7.00;;;;;5.49;78.07;100690.47;4972464;28;45243;-57
2022/04/09 04:54:39;;;;;;;;;5.00;4.00;;;;;5.48;77.25;100700.16;4974096;28;45504;-57
2022/04/09 04:57:04;;;;;;;;;4.50;4.50;;;;;5.49;76.54;100707.16;4972769;28;46106;-57
2022/04/09 04:59:30;;;;;;;;;4.00;4.00;;;;;5.53;76.97;100713.19;4983574;28;45385;-56
2022/04/09 05:01:55;;;;;;;;;5.00;4.25;;;;;5.47;77.84;100703.72;4973555;27;45247;-58
2022/04/09 05:04:21;;;;;;;;;5.75;4.25;;;;;5.59;77.50;100712.97;5025137;27;45507;-56
2022/04/09 05:06:48;;;;;;;;;7.25;5.00;;;;;5.64;76.75;100721.63;4959761;28;45866;-57
2022/04/09 05:09:14;;;;;;;;;4.50;4.50;;;;;5.62;77.38;100708.47;4973531;28;45433;-58
2022/04/09 05:11:40;;;;;;;;;4.50;4.50;;;;;5.70;77.45;100718.75;4971810;28;45488;-57
2022/04/09 05:14:06;;;;;;;;;7.00;7.00;;;;;5.76;77.04;100723.84;4971358;28;45403;-56
2022/04/09 05:16:31;;;;;;;;;5.75;5.25;;;;;5.78;77.37;100724.66;4973916;28;46706;-55
2022/04/09 05:18:57;;;;;;;;;5.75;5.75;;;;;5.79;77.41;100726.38;4970957;28;45299;-57
2022/04/09 05:21:23;;;;;;;;;5.50;4.00;;;;;5.82;77.83;100723.63;4973100;28;45501;-55
2022/04/09 05:23:48;;;;;;;;;8.25;7.50;;;;;5.84;77.37;100719.13;5003869;28;45505;-56
2022/04/09 05:26:14;;;;;;;;;6.00;4.75;;;;;5.82;75.96;100710.41;4973041;28;46160;-56
2022/04/09 05:28:39;;;;;;;;;3.50;2.50;;;;;5.84;75.69;100718.28;4972923;28;45617;-58
2022/04/09 05:31:05;;;;;;;;;5.00;5.00;;;;;5.72;75.22;100697.59;4973337;28;45224;-59
2022/04/09 05:33:30;;;;;;;;;7.00;5.00;;;;;5.83;75.59;100735.03;4971708;28;45392;-57
2022/04/09 05:35:56;;;;;;;;;4.75;4.75;;;;;5.69;75.92;100702.97;4972560;28;45251;-57
2022/04/09 05:38:22;;;;;;;;;6.50;5.25;;;;;5.82;76.60;100728.91;4972929;28;45837;-57
2022/04/09 05:40:48;;;;;;;;;10.00;5.00;;;;;5.81;76.87;100724.53;4969593;28;45300;-57
2022/04/09 05:43:14;;;;;;;;;5.50;5.50;;;;;5.94;77.31;100740.84;4973445;28;45797;-58
2022/04/09 05:45:39;;;;;;;;;4.50;4.50;;;;;6.00;76.52;100742.44;4985117;28;45539;-57
2022/04/09 05:48:05;;;;;;;;;6.25;5.00;;;;;6.03;76.39;100750.25;4974945;28;45449;-56
2022/04/09 05:50:30;;;;;;;;;5.75;5.00;;;;;5.96;76.20;100733.72;4975612;28;45338;-57
2022/04/09 05:52:55;;;;;;;;;5.50;5.00;;;;;6.07;75.48;100751.84;4976489;28;45424;-58
2022/04/09 05:55:21;;;;;;;;;4.25;4.25;;;;;6.08;77.20;100761.47;4963660;28;46475;-58
2022/04/09 05:57:47;;;;;;;;;8.75;5.00;;;;;6.05;76.34;100748.41;4974479;28;45499;-57
2022/04/09 06:00:14;;;;;;;;;6.25;4.00;;;;;6.05;76.56;100753.69;4976331;28;45507;-58
2022/04/09 06:02:39;;;;;;;;;5.75;5.00;;;;;6.09;76.32;100750.00;4974763;28;45248;-57
2022/04/09 06:05:08;;;;;;;;;4.75;4.75;;;;;6.16;75.73;100756.81;5027135;28;45968;-58
2022/04/09 06:07:34;;;;;;;;;7.00;7.00;;;;;6.11;75.19;100753.44;4974771;28;45633;-58
2022/04/09 06:09:59;;;;;;;;;8.75;5.50;;;;;6.11;76.13;100758.72;4975093;28;45369;-57
2022/04/09 06:12:25;;;;;;;;;8.00;8.00;;;;;6.09;75.73;100756.16;4967567;28;45518;-56
2022/04/09 06:14:50;;;;;;;;;9.50;7.00;;;;;6.16;75.49;100767.38;4966585;28;46103;-57
2022/04/09 06:17:15;;;;;;;;;9.00;6.50;;;;;6.18;76.28;100760.25;4989490;28;45454;-56
2022/04/09 06:19:41;;;;;;;;;6.50;6.50;;;;;6.21;76.16;100766.28;4976669;28;45729;-59
2022/04/09 06:22:07;;;;;;;;;8.50;8.50;;;;;6.23;75.23;100768.88;4973984;28;45426;-57
2022/04/09 06:24:32;;;;;;;;;10.25;8.25;;;;;6.29;75.96;100781.00;4975845;28;46718;-58
2022/04/09 06:26:58;;;;;;;;;7.00;7.00;;;;;6.33;76.37;100786.13;5007448;28;45366;-60
2022/04/09 06:29:23;;;;;;;;;9.00;7.50;;;;;6.38;75.85;100788.59;4975609;28;45325;-57
2022/04/09 06:31:49;;;;;;;;;11.25;8.75;;;;;6.39;75.60;100792.97;4975619;28;45616;-58
2022/04/09 06:34:15;;;;;;;;;10.50;9.00;;;;;6.34;76.29;100787.84;4975619;28;45422;-58
2022/04/09 06:36:40;;;;;;;;;11.00;9.00;;;;;6.43;75.64;100803.38;4973877;27;45583;-58
2022/04/09 06:39:06;;;;;;;;;8.25;8.25;;;;;6.39;76.09;100799.13;4964377;28;45842;-59
2022/04/09 06:41:33;;;;;;;;;13.25;9.75;;;;;6.43;76.01;100799.88;4971698;28;45520;-58
2022/04/09 06:43:58;;;;;;;;;8.00;6.00;;;;;6.42;75.48;100796.38;4976490;28;46131;-59
2022/04/09 06:46:24;;;;;;;;;7.50;7.50;;;;;6.52;75.89;100811.91;4975100;28;46893;-58
2022/04/09 06:48:50;;;;;;;;;8.50;8.50;;;;;6.53;76.49;100803.91;4975682;28;45707;-58
2022/04/09 06:51:16;;;;;;;;;7.50;7.50;;;;;6.58;75.55;100817.81;5001012;28;45317;-58
2022/04/09 06:53:41;;;;;;;;;11.75;8.50;;;;;6.43;75.87;100795.44;4988935;28;47054;-58
2022/04/09 06:56:07;;;;;;;;;9.00;9.00;;;;;6.60;75.59;100821.25;4973613;28;45444;-60
2022/04/09 06:58:34;;;;;;;;;9.50;8.00;;;;;6.64;76.14;100822.91;4971555;28;45548;-58
2022/04/09 07:01:00;;;;;;;;;10.25;10.25;;;;;6.61;76.20;100816.84;5023591;28;45622;-58
2022/04/09 07:03:27;;;;;;;;;9.50;8.00;;;;;6.64;75.94;100816.72;5007670;27;45643;-57
2022/04/09 07:05:53;;;;;;;;;8.50;8.50;;;;;6.53;75.77;100803.06;5042978;27;45375;-58
2022/04/09 07:08:18;;;;;;;;;8.25;8.25;;;;;6.73;75.81;100827.81;4974751;28;45236;-55
2022/04/09 07:10:44;;;;;;;;;8.75;8.75;;;;;6.75;76.38;100838.34;4963071;27;46205;-57
2022/04/09 07:13:09;;;;;;;;;10.00;10.00;;;;;6.74;76.09;100839.25;4964730;28;46211;-55
2022/04/09 07:15:34;;;;;;;;;10.25;10.25;;;;;6.84;75.88;100834.50;4975266;28;45464;-58
2022/04/09 07:18:00;;;;;;;;;11.00;11.00;;;;;6.79;74.44;100838.19;4974884;28;45482;-59
2022/04/09 07:20:26;;;;;;;;;11.00;6.00;;;;;6.78;75.93;100846.19;4975645;28;45444;-59
2022/04/09 07:22:53;;;;;;;;;9.75;9.00;;;;;6.84;75.65;100850.38;4986258;28;46157;-58
2022/04/09 07:25:18;;;;;;;;;9.25;8.75;;;;;6.91;76.70;100855.38;4994587;27;45449;-60
2022/04/09 07:27:45;;;;;;;;;9.00;9.00;;;;;6.95;75.40;100849.06;4978259;28;45444;-57
2022/04/09 07:30:12;;;;;;;;;13.50;8.00;;;;;6.95;75.29;100859.63;4975345;28;45255;-54
2022/04/09 07:32:39;;;;;;;;;9.25;8.00;;;;;6.94;75.27;100865.84;4985810;27;46070;-55
2022/04/09 07:35:05;;;;;;;;;8.00;6.00;;;;;6.88;73.61;100857.25;4974990;28;45467;-58
2022/04/09 07:37:31;;;;;;;;;7.00;7.00;;;;;6.88;75.48;100855.47;4974961;28;45399;-55
2022/04/09 07:39:57;;;;;;;;;7.25;6.50;;;;;6.85;74.95;100844.16;4975069;28;45342;-57
2022/04/09 07:42:24;;;;;;;;;9.75;7.50;;;;;6.93;75.09;100858.84;4999408;28;46173;-61
2022/04/09 07:44:50;;;;;;;;;9.75;7.50;;;;;7.00;74.83;100867.38;4965097;28;45472;-59
2022/04/09 07:47:16;;;;;;;;;13.00;9.00;;;;;6.98;74.35;100863.94;4987906;28;45402;-60
2022/04/09 07:49:44;;;;;;;;;8.00;5.00;;;;;7.08;74.89;100866.19;4968823;28;45323;-60
2022/04/09 07:52:13;;;;;;;;;10.25;8.50;;;;;7.12;74.19;100871.34;4994941;28;46188;-66
2022/04/09 07:54:39;;;;;;;;;8.25;8.25;;;;;7.12;72.63;100877.50;4973593;28;45257;-62
2022/04/09 07:57:05;;;;;;;;;12.75;11.25;;;;;7.12;73.45;100880.16;4966723;28;45267;-63
2022/04/09 07:59:31;;;;;;;;;9.00;9.00;;;;;7.12;73.85;100881.94;4973344;28;45304;-61
2022/04/09 08:01:56;;;;;;;;;13.50;11.25;;;;;7.16;73.83;100878.25;4975156;28;45258;-58
2022/04/09 08:04:21;;;;;;;;;10.50;9.00;;;;;7.12;72.28;100888.09;4980852;28;45239;-60
2022/04/09 08:06:47;;;;;;;;;9.00;5.25;;;;;7.14;71.92;100890.69;4974968;28;45356;-62
2022/04/09 08:09:12;;;;;;;;;10.25;8.25;;;;;7.16;71.94;100880.91;4973773;28;45291;-59
2022/04/09 08:11:38;;;;;;;;;11.25;9.00;;;;;7.25;71.94;100885.84;4976511;27;46202;-58
2022/04/09 08:14:03;;;;;;;;;13.75;9.50;;;;;7.27;72.70;100879.56;4974703;27;47018;-56
2022/04/09 08:16:29;;;;;;;;;13.25;13.25;;;;;7.39;73.41;100875.59;4975958;28;45303;-57
2022/04/09 08:18:54;;;;;;;;;13.25;12.00;;;;;7.61;72.85;100888.88;4975977;27;45429;-55
2022/04/09 08:21:20;;;;;;;;;10.50;10.50;;;;;7.75;71.94;100883.91;4970767;28;46342;-56
2022/04/09 08:23:47;;;;;;;;;12.25;9.50;;;;;7.81;70.93;100883.69;4955285;28;45383;-65
2022/04/09 08:26:13;;;;;;;;;8.25;8.25;;;;;7.69;70.32;100895.59;4955278;28;45405;-55
2022/04/09 08:28:39;;;;;;;;;13.00;9.00;;;;;7.59;68.42;100888.09;4982830;28;45599;-59
2022/04/09 08:31:04;;;;;;;;;14.50;7.75;;;;;7.51;67.67;100898.09;4980580;28;45415;-57
2022/04/09 08:33:33;;;;;;;;;10.00;10.00;;;;;7.49;67.28;100902.59;4979346;28;45231;-58
2022/04/09 08:36:02;;;;;;;;;9.50;9.00;;;;;7.62;70.45;100915.28;4972335;28;45667;-56
2022/04/09 08:38:28;;;;;;;;;10.25;9.75;;;;;7.72;68.21;100910.50;4974272;28;45595;-57
2022/04/09 08:40:54;;;;;;;;;12.75;9.00;;;;;7.83;67.83;100910.09;4974264;28;45491;-57
2022/04/09 08:43:20;;;;;;;;;9.00;8.25;;;;;7.68;67.25;100915.06;4989452;28;45292;-57
2022/04/09 08:45:45;;;;;;;;;10.00;10.00;;;;;7.60;67.07;100919.78;4972997;28;45340;-57
2022/04/09 08:48:11;;;;;;;;;13.50;12.50;;;;;7.43;67.83;100929.28;4954665;28;45690;-59
2022/04/09 08:50:37;;;;;;;;;16.50;11.50;;;;;7.35;69.80;100921.63;4954227;28;45323;-58
2022/04/09 08:53:07;;;;;;;;;13.50;12.25;;;;;7.61;69.84;100953.28;4954570;28;45240;-57
2022/04/09 08:55:36;;;;;;;;;16.00;13.50;;;;;7.60;67.88;100948.91;4954977;28;45291;-56
2022/04/09 08:58:03;;;;;;;;;9.25;8.50;;;;;7.62;67.85;100952.34;4953340;28;45623;-57
2022/04/09 09:00:29;;;;;;;;;12.25;7.25;;;;;7.69;69.64;100945.03;4963108;28;46198;-56
2022/04/09 09:03:00;;;;;;;;;9.75;6.50;;;;;7.89;69.22;100952.19;4982082;28;45547;-56
2022/04/09 09:05:30;;;;;;;;;9.50;8.50;;;;;8.03;68.26;100962.25;5076399;27;45275;-55
2022/04/09 09:07:56;;;;;;;;;10.00;9.25;;;;;7.99;65.79;100962.38;4974315;28;45605;-56
2022/04/09 09:10:22;;;;;;;;;8.50;6.00;;;;;7.88;66.68;100948.69;4973518;28;45572;-59
2022/04/09 09:13:05;;;;;;;;;9.75;9.75;;;;;7.75;67.49;100962.47;4979747;28;45519;-57
2022/04/09 09:15:53;;;;;;;;;6.00;6.00;;;;;7.66;67.95;100923.97;4998526;28;45453;-58
2022/04/09 09:18:22;;;;;;;;;8.00;8.00;;;;;8.01;67.14;100958.81;4988875;28;45487;-59
2022/04/09 09:20:54;;;;;;;;;31.75;31.50;;;;;7.94;67.06;100940.53;4976893;28;46145;-58
2022/04/09 09:23:21;;;;;;;;;9.50;8.50;;;;;8.16;68.33;100948.44;4988644;28;45511;-62
2022/04/09 09:25:48;;;;;;;;;7.25;7.25;;;;;8.25;67.26;100955.19;4995951;28;45450;-57
2022/04/09 09:28:22;;;;;;;;;6.75;6.00;;;;;8.19;67.96;100929.78;5082010;27;45504;-57
2022/04/09 09:30:50;;;;;;;;;7.00;7.00;;;;;8.16;67.29;100937.84;5078314;28;45277;-58
2022/04/09 09:33:16;;;;;;;;;10.00;5.75;;;;;8.37;66.14;100975.91;5023056;28;45600;-60
2022/04/09 09:35:55;;;;;;;;;6.00;6.00;;;;;8.17;64.55;100981.97;4975246;28;45355;-58
2022/04/09 09:38:27;;;;;;;;;8.25;8.25;;;;;8.14;65.17;100987.38;4977591;28;45334;-57
2022/04/09 09:40:53;;;;;;;;;9.00;7.50;;;;;8.13;63.89;100990.97;4979937;28;45680;-57
2022/04/09 09:43:20;;;;;;;;;8.50;6.50;;;;;7.91;65.16;100984.78;4987554;28;45359;-54
2022/04/09 09:45:47;;;;;;;;;7.25;6.00;;;;;8.11;66.47;101006.06;4975995;28;45358;-55
2022/04/09 09:48:20;;;;;;;;;8.50;8.50;;;;;7.93;65.60;100997.03;4976358;28;45462;-58
2022/04/09 09:50:45;;;;;;;;;9.25;8.75;;;;;8.15;66.74;101010.31;4970156;28;47592;-56
2022/04/09 09:53:11;;;;;;;;;12.75;9.50;;;;;8.39;66.58;101007.66;4956611;28;45379;-58
2022/04/09 09:55:44;;;;;;;;;8.50;8.50;;;;;8.57;66.67;101004.22;4965096;28;45509;-57
2022/04/09 09:58:16;;;;;;;;;10.00;10.00;;;;;8.82;65.88;101010.25;4956686;28;45299;-56
2022/04/09 10:00:43;;;;;;;;;7.75;7.75;;;;;8.84;65.45;101012.81;4956176;28;46166;-57
2022/04/09 10:03:13;;;;;;;;;9.75;8.00;;;;;8.85;65.11;101023.41;4978945;28;45397;-58
2022/04/09 10:05:39;;;;;;;;;5.00;5.00;;;;;8.69;63.04;101022.28;5043903;27;45423;-58
2022/04/09 10:08:05;;;;;;;;;9.00;9.00;;;;;8.65;64.24;101030.44;4974531;28;45464;-57
2022/04/09 10:10:35;;;;;;;;;11.00;9.50;;;;;8.73;65.91;101033.66;4967876;28;46549;-56
2022/04/09 10:13:02;;;;;;;;;8.25;8.25;;;;;8.73;65.84;101041.63;5032325;28;45318;-59
2022/04/09 10:15:28;;;;;;;;;9.00;9.00;;;;;8.54;65.23;101038.81;5061379;27;45621;-59
2022/04/09 10:17:56;;;;;;;;;5.00;5.00;;;;;8.52;65.16;101045.97;4968704;28;45473;-59
2022/04/09 10:20:25;;;;;;;;;9.75;8.50;;;;;8.57;66.92;101041.34;4956253;28;45352;-58
2022/04/09 10:22:55;;;;;;;;;6.00;6.00;;;;;8.36;64.33;101034.28;4956296;28;45330;-56
2022/04/09 10:25:24;;;;;;;;;10.50;9.00;;;;;8.46;66.74;101056.81;4956222;28;45476;-54
2022/04/09 10:27:53;;;;;;;;;21.50;20.00;;;;;8.53;65.79;101060.97;4964500;28;45676;-56
2022/04/09 10:30:21;;;;;;;;;11.25;10.00;;;;;8.41;64.47;101064.09;4956062;28;46505;-55
2022/04/09 10:32:51;;;;;;;;;5.50;3.25;;;;;8.45;66.16;101063.03;4956111;28;45248;-57
2022/04/09 10:35:27;;;;;;;;;6.50;6.50;;;;;8.40;63.62;101063.25;4955102;28;45284;-59
2022/04/09 10:38:14;;;;;;;;;12.50;7.25;;;;;8.45;67.00;101071.00;4955762;28;45432;-63
2022/04/09 10:40:42;;;;;;;;;6.75;6.75;;;;;8.50;65.93;101074.34;4973344;28;45460;-57
2022/04/09 10:43:09;;;;;;;;;7.25;7.25;;;;;8.50;64.33;101069.03;4975481;28;45441;-55
2022/04/09 10:46:04;;;;;;;;;9.25;8.50;;;;;8.48;66.53;101076.19;4969148;27;45502;-57
2022/04/09 10:48:34;;;;;;;;;9.00;7.25;;;;;8.58;64.49;101080.19;4956578;28;45243;-55
2022/04/09 10:51:06;;;;;;;;;10.50;9.00;;;;;8.45;63.87;101082.47;4955824;28;46185;-56
2022/04/09 10:53:33;;;;;;;;;10.25;9.00;;;;;8.51;66.69;101081.38;4956618;28;45347;-56
2022/04/09 10:56:24;;;;;;;;;9.50;9.50;;;;;8.63;65.00;101082.69;4973843;28;45201;-56
2022/04/09 10:59:12;;;;;;;;;14.25;13.00;;;;;8.72;65.92;101085.78;4976555;28;45462;-57
2022/04/09 11:01:47;;;;;;;;;9.00;9.00;;;;;8.77;64.22;101082.97;4975479;28;46275;-54
2022/04/09 11:07:15;;;;;;;;;20.00;18.50;;;;;8.95;64.13;101086.66;4996504;27;45408;-56
2022/04/09 11:09:56;;;;;;;;;11.50;10.50;;;;;9.06;62.46;101090.59;4974453;28;45173;-60
2022/04/09 11:12:27;;;;;;;;;9.50;7.00;;;;;8.89;59.14;101097.53;4974667;28;45357;-55
2022/04/09 11:14:52;;;;;;;;;7.00;7.00;;;;;9.03;61.73;101101.34;4971144;28;45992;-55
2022/04/09 11:17:29;;;;;;;;;9.00;8.75;;;;;8.95;59.35;101103.44;4964396;28;45528;-55
2022/04/09 11:19:59;;;;;;;;;8.50;8.50;;;;;8.99;60.64;101098.88;4974159;28;45443;-51
2022/04/09 11:22:33;;;;;;;;;13.75;10.00;;;;;9.32;60.59;101097.44;4972414;27;45488;-54
2022/04/09 11:24:59;;;;;;;;;10.00;10.00;;;;;9.40;60.18;101095.34;4954761;28;45301;-54
2022/04/09 11:27:28;;;;;;;;;10.75;9.25;;;;;9.54;58.73;101096.53;4967861;28;45421;-55
2022/04/09 11:29:55;;;;;;;;;10.75;9.50;;;;;9.53;58.79;101100.13;4973844;28;45351;-56
2022/04/09 11:32:21;;;;;;;;;8.50;8.50;;;;;9.41;59.96;101097.06;4974451;28;45498;-61
2022/04/09 11:34:54;;;;;;;;;9.75;8.25;;;;;9.46;58.71;101095.06;4959194;28;45498;-56
2022/04/09 11:37:20;;;;;;;;;9.25;9.25;;;;;9.66;56.21;101103.97;4965284;28;46571;-58